Latest Weather Observations for Rottnest Island

IDW60801

Issued at 5:04 pm WST Thursday 19 October 2017 (issued every 30 minutes, with the page automatically refreshed every 10 minutes)

About weather observations | Map of weather stations | Latest weather observations for WA | Other Formats
Station Details ID: 009193 Name: ROTTNEST ISLAND Lat: -32.01 Lon: 115.50 Height: 43.1 m
Data from the previous 72 hours. | See also: Recent months at Rottnest Island
Date/Time
WST
Temp
°C
App
Temp
°C
Dew
Point
°C
Rel
Hum
%
Delta-T
°C
Wind Press
QNH
hPa
Press
MSL
hPa
Rain since
9am
mm
Dir  Spd
km/h
Gust
km/h
Spd
kts
Gust
kts
19/05:00pm 17.7 11.2 11.7 68 3.3 SSW 37 44 20 24 1023.5 1023.4 0.0
19/04:30pm 18.2 12.0 11.5 65 3.7 SSW 35 43 19 23 1023.3 1023.2 0.0
19/04:00pm 18.5 12.8 11.3 63 3.9 SSW 32 37 17 20 1023.0 1022.9 0.0
19/03:30pm 19.4 14.2 10.4 56 4.9 SSW 28 35 15 19 1023.0 1022.9 0.0
19/03:00pm 20.1 15.3 11.6 58 4.7 SSW 28 33 15 18 1023.3 1023.2 0.0
19/02:30pm 19.3 14.4 9.8 54 5.1 SSW 26 32 14 17 1023.6 1023.5 0.0
19/02:00pm 20.0 16.5 11.0 56 4.9 SSW 20 28 11 15 1023.8 1023.7 0.0
19/01:30pm 19.1 15.6 8.7 51 5.4 S 17 20 9 11 1024.3 1024.2 0.0
19/01:00pm 19.2 15.2 8.2 49 5.7 S 19 22 10 12 1024.7 1024.6 0.0
19/12:30pm 19.3 14.6 7.7 47 5.9 SSE 22 28 12 15 1024.8 1024.8 0.0
19/12:00pm 19.4 15.3 6.2 42 6.5 ESE 17 24 9 13 1025.3 1025.3 0.0
19/11:30am 19.1 14.4 6.2 43 6.4 ENE 20 30 11 16 1025.7 1025.7 0.0
19/11:00am 19.1 14.7 7.5 47 5.9 E 20 26 11 14 1026.0 1026.0 0.0
19/10:30am 18.4 13.6 7.2 48 5.6 E 22 32 12 17 1026.1 1026.1 0.0
19/10:00am 17.4 11.7 6.6 49 5.3 E 26 37 14 20 1026.5 1026.5 0.0
19/09:30am 16.5 10.8 6.6 52 4.9 E 26 37 14 20 1026.7 1026.7 0.0
19/09:00am 15.3 10.7 6.6 56 4.2 ESE 20 30 11 16 1026.9 1026.9 0.4
19/08:30am 14.4 9.3 6.0 57 4.0 ESE 22 30 12 16 1027.1 1027.1 0.4
19/08:00am 13.9 8.3 5.5 57 3.9 ESE 24 32 13 17 1027.1 1027.1 0.4
19/07:30am 13.3 8.1 5.5 59 3.7 ESE 22 32 12 17 1026.9 1026.9 0.4
19/07:00am 12.8 8.0 5.5 61 3.4 ESE 20 30 11 16 1027.0 1027.0 0.4
19/06:30am 12.2 7.4 4.7 60 3.4 ESE 19 28 10 15 1026.7 1026.7 0.4
19/06:00am 11.6 7.2 4.8 63 3.1 ESE 17 26 9 14 1026.5 1026.5 0.4
19/05:30am 11.6 6.9 5.3 65 2.9 ESE 19 30 10 16 1026.1 1026.1 0.4
19/05:00am 11.8 7.5 5.2 64 3.0 ESE 17 26 9 14 1025.9 1025.9 0.4
19/04:30am 12.0 7.2 5.6 65 3.0 SE 20 28 11 15 1025.6 1025.6 0.4
19/04:00am 11.9 7.6 5.1 63 3.1 ESE 17 24 9 13 1025.4 1025.4 0.4
19/03:30am 12.6 6.2 5.1 60 3.5 SE 28 35 15 19 1025.1 1025.1 0.4
19/03:00am 12.7 5.9 5.1 60 3.5 SE 30 39 16 21 1025.0 1025.0 0.4
19/02:30am 12.8 5.7 5.5 61 3.4 SE 32 41 17 22 1024.9 1024.9 0.4
19/02:00am 12.9 5.2 5.3 60 3.5 SE 35 43 19 23 1024.7 1024.6 0.4
19/01:30am 13.2 6.2 6.1 62 3.4 SE 32 43 17 23 1024.6 1024.5 0.4
19/01:00am 13.4 6.4 6.7 64 3.2 SSE 33 44 18 24 1024.7 1024.6 0.4
19/12:30am 13.6 6.9 7.4 66 3.0 SSE 32 41 17 22 1024.6 1024.5 0.4
19/12:00am 14.0 7.8 8.0 67 3.0 SSE 30 41 16 22 1024.8 1024.8 0.4
 
Date/Time
WST
Temp
°C
App
Temp
°C
Dew
Point
°C
Rel
Hum
%
Delta-T
°C
Wind Press
QNH
hPa
Press
MSL
hPa
Rain since
9am
mm
Dir  Spd
km/h
Gust
km/h
Spd
kts
Gust
kts
18/11:30pm 14.2 7.9 7.5 64 3.3 SSE 30 37 16 20 1024.7 1024.6 0.4
18/11:00pm 14.2 8.2 7.0 62 3.5 SSE 28 35 15 19 1024.8 1024.8 0.4
18/10:30pm 14.3 8.6 6.9 61 3.6 S 26 32 14 17 1024.7 1024.6 0.4
18/10:00pm 14.0 8.5 6.1 59 3.8 S 24 30 13 16 1024.8 1024.8 0.4
18/09:30pm 14.3 8.3 7.1 62 3.5 SSE 28 35 15 19 1024.5 1024.4 0.4
18/09:00pm 14.6 8.2 6.9 60 3.7 S 30 35 16 19 1024.5 1024.4 0.4
18/08:30pm 14.4 8.7 6.5 59 3.8 S 26 33 14 18 1024.3 1024.2 0.4
18/08:00pm 14.6 7.9 7.4 62 3.5 S 32 39 17 21 1023.5 1023.4 0.4
18/07:30pm 14.6 8.2 6.9 60 3.8 S 30 35 16 19 1023.3 1023.2 0.4
18/07:00pm 14.3 8.3 6.9 61 3.6 S 28 35 15 19 1023.1 1023.0 0.4
18/06:30pm 14.2 8.0 6.3 59 3.8 S 28 35 15 19 1022.9 1022.8 0.4
18/06:00pm 14.9 8.8 6.7 58 4.0 S 28 35 15 19 1022.6 1022.5 0.4
18/05:30pm 15.5 9.4 6.5 55 4.4 S 28 35 15 19 1022.3 1022.2 0.4
18/05:00pm 16.1 10.8 6.8 54 4.6 S 24 32 13 17 1022.1 1022.0 0.4
18/04:30pm 16.2 10.5 6.6 53 4.7 S 26 32 14 17 1021.7 1021.6 0.4
18/04:00pm 16.6 11.0 7.3 54 4.6 SSW 26 33 14 18 1021.5 1021.4 0.4
18/03:30pm 16.7 10.7 5.3 47 5.5 SSW 26 33 14 18 1021.3 1021.2 0.4
18/03:00pm 17.5 11.3 6.1 47 5.6 SW 28 35 15 19 1021.1 1021.0 0.4
18/02:30pm 16.7 10.2 4.7 45 5.7 SW 28 33 15 18 1021.0 1020.9 0.4
18/02:00pm 17.0 10.7 5.6 47 5.5 SSW 28 37 15 20 1021.2 1021.1 0.4
18/01:30pm 16.9 10.3 6.1 49 5.3 SSW 30 35 16 19 1021.1 1021.0 0.4
18/01:00pm 17.4 11.5 7.5 52 5.0 SSW 28 33 15 18 1021.2 1021.1 0.4
18/12:30pm 17.1 12.6 6.3 49 5.3 N 19 44 10 24 1021.0 1020.9 0.4
18/12:18pm 16.8 11.8 6.3 50 5.1 SW 22 54 12 29 1021.0 1020.9 0.4
18/12:00pm 16.9 9.8 5.5 47 5.5 SW 32 39 17 21 1020.8 1020.7 0.0
18/11:30am 17.0 10.7 7.4 53 4.8 SSW 30 37 16 20 1020.8 1020.7 0.0
18/11:00am 16.6 10.1 8.1 57 4.3 SW 32 41 17 22 1020.8 1020.7 0.0
18/10:30am 17.1 11.1 5.4 46 5.6 SW 26 32 14 17 1020.7 1020.6 0.0
18/10:00am 16.6 9.4 4.9 46 5.5 SW 32 37 17 20 1020.5 1020.4 0.0
18/09:30am 16.3 9.8 6.4 52 4.8 SW 30 35 16 19 1020.2 1020.1 0.0
18/09:00am 16.8 10.7 6.6 51 5.0 WSW 28 35 15 19 1019.7 1019.6 2.0
18/08:30am 16.7 11.4 8.4 58 4.2 SW 26 32 14 17 1019.4 1019.3 2.0
18/08:00am 15.9 9.5 7.1 56 4.3 SW 30 37 16 20 1018.9 1018.8 2.0
18/07:30am 15.4 9.3 6.4 55 4.4 SW 28 35 15 19 1018.5 1018.4 2.0
18/07:00am 14.8 8.9 7.4 61 3.6 SW 28 35 15 19 1018.1 1018.0 2.0
18/06:30am 13.3 9.3 8.2 71 2.5 WSW 19 24 10 13 1017.6 1017.5 2.0
18/06:00am 13.1 6.9 7.8 70 2.6 WSW 30 37 16 20 1017.2 1017.1 2.0
18/05:30am 13.8 9.2 6.7 62 3.4 WSW 20 32 11 17 1016.6 1016.5 2.0
18/05:00am 13.9 8.4 6.0 59 3.8 WSW 24 30 13 16 1016.2 1016.1 2.0
18/04:30am 13.8 8.0 6.2 60 3.6 WSW 26 35 14 19 1015.9 1015.8 2.0
18/04:00am 14.0 8.5 5.9 58 3.9 WSW 24 33 13 18 1015.4 1015.3 2.0
18/03:30am 14.0 6.9 6.4 60 3.7 SW 33 43 18 23 1015.0 1014.9 2.0
18/03:00am 14.1 8.0 6.5 60 3.7 WSW 28 37 15 20 1014.6 1014.5 2.0
18/02:30am 14.4 7.6 7.0 61 3.6 SW 32 41 17 22 1014.4 1014.3 2.0
18/02:00am 14.6 7.1 6.2 57 4.0 SW 35 46 19 25 1013.9 1013.8 2.0
18/01:30am 14.4 9.5 8.6 68 2.9 SW 24 32 13 17 1013.8 1013.7 2.0
18/01:00am 14.3 8.5 8.0 66 3.1 WSW 28 33 15 18 1013.7 1013.6 2.0
18/12:30am 14.4 8.5 9.0 70 2.8 SW 30 37 16 20 1013.8 1013.7 2.0
18/12:00am 14.4 8.4 8.6 68 2.9 WSW 30 41 16 22 1013.7 1013.6 2.0
 
Date/Time
WST
Temp
°C
App
Temp
°C
Dew
Point
°C
Rel
Hum
%
Delta-T
°C
Wind Press
QNH
hPa
Press
MSL
hPa
Rain since
9am
mm
Dir  Spd
km/h
Gust
km/h
Spd
kts
Gust
kts
17/11:30pm 14.7 7.9 7.7 63 3.5 WSW 33 44 18 24 1013.4 1013.3 2.0
17/11:00pm 14.6 6.9 8.8 68 2.9 WSW 39 52 21 28 1013.2 1013.1 2.0
17/10:30pm 14.7 7.3 9.9 73 2.5 SW 39 52 21 28 1012.8 1012.7 2.0
17/10:00pm 14.7 8.2 11.7 82 1.6 SW 37 52 20 28 1012.4 1012.3 2.0
17/09:30pm 14.6 7.1 12.1 85 1.4 WSW 43 56 23 30 1012.2 1012.1 2.0
17/09:00pm 15.1 8.5 12.6 85 1.4 WSW 39 56 21 30 1011.8 1011.7 2.0
17/08:57pm 15.0 9.1 12.5 85 1.4 WSW 35 56 19 30 1011.7 1011.6 2.0
17/08:30pm 15.2 10.1 13.6 90 0.9 W 33 46 18 25 1011.4 1011.3 2.0
17/08:18pm 15.0 9.0 13.2 89 1.0 W 37 56 20 30 1011.4 1011.3 2.0
17/08:00pm 15.8 9.1 13.3 85 1.4 WNW 41 50 22 27 1010.9 1010.8 1.2
17/07:30pm 15.9 8.6 12.8 82 1.7 WNW 43 59 23 32 1010.6 1010.5 1.0
17/07:00pm 16.1 8.8 12.8 81 1.8 WNW 43 56 23 30 1010.2 1010.1 1.0
17/06:30pm 15.4 8.2 13.1 86 1.3 NW 43 56 23 30 1010.1 1010.0 1.0
17/06:14pm 14.6 5.9 12.6 88 1.1 NW 50 72 27 39 1009.8 1009.7 1.0
17/06:09pm 15.2 7.9 12.9 86 1.3 NW 43 72 23 39 1009.6 1009.5 1.0
17/06:07pm 15.8 9.2 12.7 82 1.7 NW 39 70 21 38 1009.8 1009.7 1.0
17/06:00pm 15.7 9.2 12.8 83 1.6 NW 39 48 21 26 1009.7 1009.6 1.0
17/05:30pm 17.1 9.4 11.4 69 3.1 NW 43 54 23 29 1009.4 1009.3 0.4
17/05:00pm 17.4 8.9 10.8 65 3.6 NW 46 56 25 30 1009.2 1009.1 0.4
17/04:30pm 17.8 10.9 11.6 67 3.4 NW 39 52 21 28 1009.2 1009.1 0.4
17/04:00pm 17.6 10.8 11.9 69 3.1 NW 39 48 21 26 1009.1 1009.0 0.4
17/03:30pm 18.4 11.9 11.7 65 3.7 NW 37 46 20 25 1009.1 1009.0 0.4
17/03:00pm 18.5 11.1 11.3 63 3.9 NW 41 50 22 27 1009.2 1009.1 0.4
17/02:30pm 17.8 12.1 11.8 68 3.3 NW 33 41 18 22 1009.2 1009.1 0.4
17/02:00pm 18.0 11.5 11.8 67 3.4 NW 37 46 20 25 1009.5 1009.4 0.4
17/01:30pm 18.3 10.8 10.9 62 4.0 NW 41 52 22 28 1009.3 1009.2 0.4
17/01:00pm 16.1 9.5 11.3 73 2.6 WNW 37 46 20 25 1009.8 1009.7 0.4
17/12:30pm 14.8 7.9 12.7 87 1.2 WNW 41 52 22 28 1010.2 1010.1 0.4
17/12:00pm 18.9 14.0 12.4 66 3.6 NW 30 39 16 21 1010.1 1010.0 0.0
17/11:30am 16.0 9.6 10.7 71 2.8 WNW 35 48 19 26 1010.4 1010.3 0.0
17/11:00am 18.4 12.2 9.2 55 4.8 WNW 32 41 17 22 1010.2 1010.1 0.0
17/10:30am 18.2 11.5 9.5 57 4.6 WNW 35 48 19 26 1010.3 1010.2 0.0
17/10:00am 17.0 10.8 9.4 61 4.0 WNW 32 41 17 22 1010.1 1010.0 0.0
17/09:30am 16.7 9.8 8.9 60 4.0 WNW 35 44 19 24 1009.9 1009.8 0.0
17/09:00am 16.0 9.5 9.0 63 3.6 WNW 33 43 18 23 1009.6 1009.5 2.8
17/08:30am 15.9 10.6 11.3 74 2.5 W 30 43 16 23 1009.6 1009.5 2.8
17/08:00am 15.4 10.8 12.2 81 1.8 W 28 39 15 21 1009.3 1009.2 2.8
17/07:37am 13.8 8.2 12.2 90 0.9 W 33 52 18 28 1009.2 1009.1 2.8
17/07:30am 13.8 7.9 12.4 91 0.8 W 35 52 19 28 1009.0 1008.9 2.6
17/07:13am 13.8 7.5 11.1 84 1.4 W 35 69 19 37 1008.6 1008.5 1.6
17/07:10am 15.8 10.8 12.2 79 2.0 W 30 48 16 26 1008.9 1008.8 1.0
17/07:00am 15.4 9.8 11.4 77 2.2 W 32 43 17 23 1008.7 1008.6 1.0
17/06:30am 14.3 9.3 12.2 87 1.1 W 30 39 16 21 1008.4 1008.3 1.0
17/06:17am 14.4 9.8 12.3 87 1.1 WSW 28 44 15 24 1008.1 1008.0 1.0
17/06:00am 13.8 10.2 12.0 89 1.0 WSW 22 32 12 17 1008.1 1008.0 1.0
17/05:30am 13.9 7.1 12.1 89 1.0 W 39 59 21 32 1007.5 1007.5 0.8
17/05:25am 14.7 9.7 12.2 85 1.4 W 30 59 16 32 1007.4 1007.4 0.6
17/05:00am 14.1 9.4 12.1 88 1.1 W 28 43 15 23 1007.4 1007.4 0.6
17/04:30am 14.6 10.2 11.7 83 1.6 WSW 26 35 14 19 1007.1 1007.1 0.6
17/04:00am 14.5 9.1 12.2 86 1.3 WSW 32 46 17 25 1007.0 1007.0 0.6
17/03:55am 14.6 9.9 12.1 85 1.4 WSW 28 46 15 25 1006.9 1006.9 0.6
17/03:30am 15.0 10.8 12.3 84 1.5 WSW 26 35 14 19 1006.7 1006.7 0.6
17/03:00am 15.3 9.4 11.3 77 2.2 WSW 33 41 18 22 1006.6 1006.6 0.6
17/02:30am 15.8 9.2 10.1 69 3.0 WSW 35 43 19 23 1006.3 1006.3 0.6
17/02:00am 15.6 10.0 11.4 76 2.3 WSW 32 41 17 22 1006.3 1006.3 0.6
17/01:30am 15.3 10.9 12.8 85 1.4 WSW 28 37 15 20 1006.3 1006.3 0.6
17/01:00am 15.5 10.9 12.3 81 1.8 W 28 41 15 22 1006.6 1006.6 0.6
17/12:30am 15.9 9.9 12.1 78 2.1 WNW 35 46 19 25 1006.5 1006.5 0.6
17/12:00am 15.9 9.7 11.3 74 2.5 W 35 50 19 27 1006.5 1006.5 0.6
 
Date/Time
WST
Temp
°C
App
Temp
°C
Dew
Point
°C
Rel
Hum
%
Delta-T
°C
Wind Press
QNH
hPa
Press
MSL
hPa
Rain since
9am
mm
Dir  Spd
km/h
Gust
km/h
Spd
kts
Gust
kts
16/11:30pm 15.8 9.0 11.8 77 2.2 W 39 52 21 28 1006.2 1006.2 0.6
16/11:03pm 15.4 8.5 12.9 85 1.4 W 41 59 22 32 1005.9 1005.9 0.6
16/11:00pm 15.4 7.9 12.7 84 1.5 W 44 59 24 32 1005.8 1005.8 0.6
16/10:30pm 15.4 7.9 12.7 84 1.5 WNW 44 57 24 31 1005.1 1005.1 0.4
16/10:00pm 15.3 5.3 12.8 85 1.4 WNW 57 80 31 43 1004.7 1004.6 0.4
16/09:51pm 16.9 7.5 11.6 71 2.9 WNW 52 70 28 38 1004.4 1004.3 0.4
16/09:30pm 16.4 7.0 12.6 78 2.1 WNW 54 70 29 38 1004.6 1004.5 0.4
16/09:02pm 15.7 5.6 13.4 86 1.3 NW 59 78 32 42 1004.3 1004.2 0.4
16/09:00pm 15.6 5.1 13.3 86 1.3 NW 61 78 33 42 1004.0 1003.9 0.4
16/08:30pm 16.4 5.3 12.8 79 2.0 NW 63 85 34 46 1003.8 1003.7 0.4
16/08:00pm 15.8 4.3 12.7 82 1.7 NW 65 87 35 47 1003.5 1003.4 0.4
16/07:30pm 16.8 5.4 11.7 72 2.8 NW 63 83 34 45 1002.3 1002.2 0.2
16/07:04pm 16.1 5.3 11.1 72 2.7 NW 59 83 32 45 1002.0 1001.9 0.2
16/07:00pm 16.1 5.5 12.1 77 2.2 NW 59 74 32 40 1002.5 1002.4 0.2
16/06:30pm 15.7 5.5 12.1 79 2.0 NW 57 76 31 41 1002.2 1002.1 0.2
16/06:22pm 15.2 5.2 12.2 82 1.6 NW 56 76 30 41 1002.3 1002.2 0.2
16/06:21pm 15.1 5.1 12.2 83 1.6 NW 56 76 30 41 1002.3 1002.2 0.2
16/06:00pm 14.6 2.0 12.1 85 1.4 NW 70 93 38 50 1002.3 1002.2 0.2
16/05:30pm 16.6 3.7 10.7 68 3.2 NW 69 89 37 48 1001.8 1001.7 0.0

Other Formats:

Comma delimited format used in spreadsheet applications
http://www.bom.gov.au/fwo/IDW60801/IDW60801.94602.axf

JavaScript Object Notation format (JSON) in row-major order
http://www.bom.gov.au/fwo/IDW60801/IDW60801.94602.json